createdAt,value
2022-10-30T00:01:31.168Z,3.58
2022-10-30T00:04:01.714Z,3.10
2022-10-30T00:06:29.788Z,3.00
2022-10-30T00:08:57.787Z,3.30
2022-10-30T00:11:25.933Z,3.45
2022-10-30T00:13:56.623Z,3.50
2022-10-30T00:16:24.697Z,3.70
2022-10-30T00:18:53.982Z,3.58
2022-10-30T00:21:21.960Z,3.10
2022-10-30T00:23:55.211Z,3.15
2022-10-30T00:26:25.658Z,3.55
2022-10-30T00:28:55.122Z,3.38
2022-10-30T00:31:24.595Z,3.92
2022-10-30T00:33:53.773Z,3.40
2022-10-30T00:36:23.027Z,3.28
2022-10-30T00:38:51.248Z,3.45
2022-10-30T00:41:24.741Z,3.10
2022-10-30T00:43:53.277Z,3.83
2022-10-30T00:46:29.651Z,3.03
2022-10-30T00:49:01.729Z,3.55
2022-10-30T00:51:31.792Z,3.42
2022-10-30T00:54:03.624Z,3.13
2022-10-30T00:56:32.706Z,2.88
2022-10-30T00:59:04.326Z,2.85
2022-10-30T01:01:38.666Z,3.65
2022-10-30T01:04:08.046Z,3.00
2022-10-30T01:06:40.940Z,3.60
2022-10-30T01:09:09.317Z,3.70
2022-10-30T01:11:40.525Z,3.20
2022-10-30T01:14:10.894Z,3.15
2022-10-30T01:16:56.095Z,3.33
2022-10-30T01:19:29.332Z,3.80
2022-10-30T01:22:22.481Z,3.28
2022-10-30T01:25:04.681Z,2.80
2022-10-30T01:27:40.290Z,2.92
2022-10-30T01:30:19.717Z,2.97
2022-10-30T01:33:04.840Z,3.13
2022-10-30T01:35:38.922Z,3.40
2022-10-30T01:38:13.551Z,3.47
2022-10-30T01:40:41.660Z,3.42
2022-10-30T01:43:10.548Z,3.42
2022-10-30T01:46:17.112Z,3.10
2022-10-30T01:49:12.691Z,3.05
2022-10-30T01:51:55.848Z,3.10
2022-10-30T01:54:36.013Z,2.72
2022-10-30T01:57:10.803Z,2.50
2022-10-30T01:59:44.368Z,2.45
2022-10-30T02:02:15.155Z,2.72
2022-10-30T02:04:45.597Z,2.55
2022-10-30T02:07:13.998Z,2.83
2022-10-30T02:09:42.206Z,2.67
2022-10-30T02:12:10.970Z,3.00
2022-10-30T02:14:44.190Z,2.72
2022-10-30T02:17:13.420Z,3.00
2022-10-30T02:19:41.420Z,2.78
2022-10-30T02:22:11.128Z,2.90
2022-10-30T02:24:39.428Z,3.13
2022-10-30T02:27:07.428Z,2.97
2022-10-30T02:29:35.448Z,3.25
2022-10-30T02:32:04.082Z,2.50
2022-10-30T02:34:32.135Z,2.78
2022-10-30T02:37:01.400Z,3.03
2022-10-30T02:39:30.807Z,2.70
2022-10-30T02:41:58.805Z,2.75
2022-10-30T02:44:28.962Z,2.70
2022-10-30T02:46:56.961Z,3.17
2022-10-30T02:49:25.130Z,3.15
2022-10-30T02:51:53.155Z,2.97
2022-10-30T02:54:21.111Z,2.78
2022-10-30T02:56:50.444Z,2.65
2022-10-30T02:59:18.571Z,3.05
2022-10-30T03:01:46.738Z,2.92
2022-10-30T03:04:14.996Z,3.08
2022-10-30T03:06:43.064Z,3.47
2022-10-30T03:09:11.071Z,3.45
2022-10-30T03:11:39.085Z,3.35
2022-10-30T03:14:11.739Z,3.20
2022-10-30T03:16:39.937Z,3.25
2022-10-30T03:19:08.021Z,3.55
2022-10-30T03:21:36.027Z,3.28
2022-10-30T03:24:07.204Z,3.25
2022-10-30T03:26:35.209Z,3.33
2022-10-30T03:29:03.308Z,3.00
2022-10-30T03:31:33.418Z,3.10
2022-10-30T03:34:01.375Z,3.35
2022-10-30T03:36:29.397Z,3.20
2022-10-30T03:38:57.806Z,3.17
2022-10-30T03:41:25.936Z,2.80
2022-10-30T03:43:53.982Z,3.63
2022-10-30T03:46:21.981Z,3.25
2022-10-30T03:48:51.690Z,3.50
2022-10-30T03:51:22.541Z,3.53
2022-10-30T03:53:50.478Z,3.20
2022-10-30T03:56:19.856Z,2.75
2022-10-30T03:58:50.958Z,2.90
2022-10-30T04:01:21.024Z,2.85
2022-10-30T04:03:49.166Z,2.88
2022-10-30T04:06:18.583Z,3.67
2022-10-30T04:08:49.087Z,2.78
2022-10-30T04:11:17.182Z,3.53
2022-10-30T04:13:45.208Z,3.58
2022-10-30T04:16:13.208Z,3.17
2022-10-30T04:18:41.209Z,3.38
2022-10-30T04:21:12.064Z,3.53
2022-10-30T04:23:41.487Z,2.97
2022-10-30T04:26:09.403Z,3.08
2022-10-30T04:28:37.430Z,3.42
2022-10-30T04:31:05.512Z,3.75
2022-10-30T04:33:33.500Z,3.80
2022-10-30T04:36:02.511Z,3.90
2022-10-30T04:38:30.857Z,3.65
2022-10-30T04:41:00.232Z,3.28
2022-10-30T04:43:29.843Z,3.80
2022-10-30T04:45:57.833Z,3.35
2022-10-30T04:48:25.962Z,3.70
2022-10-30T04:50:54.008Z,3.90
2022-10-30T04:53:22.155Z,3.92
2022-10-30T04:55:54.653Z,3.25
2022-10-30T04:58:26.252Z,4.07
2022-10-30T05:00:58.968Z,3.72
2022-10-30T05:03:30.289Z,4.22
2022-10-30T05:06:00.749Z,4.13
2022-10-30T05:08:29.186Z,3.90
2022-10-30T05:10:57.862Z,3.90
2022-10-30T05:13:27.336Z,3.72
2022-10-30T05:15:56.045Z,4.30
2022-10-30T05:18:24.073Z,3.70
2022-10-30T05:20:52.079Z,3.50
2022-10-30T05:23:20.125Z,3.38
2022-10-30T05:25:48.104Z,3.28
2022-10-30T05:28:16.389Z,3.15
2022-10-30T05:30:45.698Z,2.80
2022-10-30T05:33:15.947Z,3.38
2022-10-30T05:35:46.710Z,3.15
2022-10-30T05:38:15.030Z,3.20
2022-10-30T05:40:43.011Z,3.90
2022-10-30T05:43:13.054Z,3.70
2022-10-30T05:45:40.992Z,3.30
2022-10-30T05:48:10.496Z,3.30
2022-10-30T05:50:40.377Z,3.50
2022-10-30T05:53:08.436Z,3.67
2022-10-30T05:55:36.627Z,3.08
2022-10-30T05:58:08.368Z,3.50
2022-10-30T06:00:39.220Z,3.03
2022-10-30T06:03:09.061Z,3.08
2022-10-30T06:05:38.971Z,2.88
2022-10-30T06:08:10.617Z,2.70
2022-10-30T06:10:38.842Z,3.15
2022-10-30T06:13:08.426Z,2.97
2022-10-30T06:15:36.410Z,2.95
2022-10-30T06:18:04.498Z,3.28
2022-10-30T06:20:32.999Z,2.47
2022-10-30T06:23:04.079Z,2.28
2022-10-30T06:25:37.888Z,2.45
2022-10-30T06:28:10.249Z,2.00
2022-10-30T06:30:38.280Z,2.25
2022-10-30T06:33:06.869Z,2.45
2022-10-30T06:35:34.959Z,2.60
2022-10-30T06:38:05.004Z,2.45
2022-10-30T06:40:33.028Z,2.38
2022-10-30T06:43:01.333Z,2.80
2022-10-30T06:45:29.698Z,2.78
2022-10-30T06:47:58.115Z,2.50
2022-10-30T06:50:26.656Z,2.63
2022-10-30T06:52:55.561Z,2.40
2022-10-30T06:55:25.836Z,3.30
2022-10-30T06:57:59.813Z,2.63
2022-10-30T07:00:28.042Z,2.38
2022-10-30T07:02:57.800Z,2.67
2022-10-30T07:05:26.131Z,2.35
2022-10-30T07:07:56.437Z,2.83
2022-10-30T07:10:25.954Z,2.83
2022-10-30T07:12:55.596Z,2.80
2022-10-30T07:15:24.129Z,3.03
2022-10-30T07:17:57.033Z,3.10
2022-10-30T07:20:25.898Z,3.10
2022-10-30T07:22:53.969Z,3.60
2022-10-30T07:25:21.951Z,3.83
2022-10-30T07:27:53.222Z,3.13
2022-10-30T07:33:03.069Z,3.13
2022-10-30T07:35:32.481Z,3.30
2022-10-30T07:38:04.387Z,4.28
2022-10-30T07:40:32.639Z,3.70
2022-10-30T07:43:04.572Z,3.38
2022-10-30T07:45:33.199Z,3.60
2022-10-30T07:48:01.571Z,4.00
2022-10-30T07:50:30.419Z,3.90
2022-10-30T07:52:58.488Z,3.40
2022-10-30T07:55:26.555Z,3.90
2022-10-30T07:57:54.765Z,4.10
2022-10-30T08:00:24.219Z,3.95
2022-10-30T08:02:52.859Z,3.92
2022-10-30T08:05:23.266Z,4.20
2022-10-30T08:07:55.366Z,3.70
2022-10-30T08:10:23.582Z,4.82
2022-10-30T08:12:56.304Z,3.67
2022-10-30T08:15:26.137Z,4.28
2022-10-30T08:17:54.578Z,6.13
2022-10-30T08:20:25.023Z,8.05
2022-10-30T08:22:54.323Z,9.18
2022-10-30T08:25:24.270Z,7.70
2022-10-30T08:27:53.768Z,6.95
2022-10-30T08:30:22.120Z,6.20
2022-10-30T08:32:51.486Z,5.32
2022-10-30T08:35:20.205Z,3.88
2022-10-30T08:37:48.620Z,3.97
2022-10-30T08:40:16.856Z,3.72
2022-10-30T08:42:50.907Z,3.42
2022-10-30T08:45:19.086Z,3.50
2022-10-30T08:47:47.232Z,3.50
2022-10-30T08:50:16.797Z,3.40
2022-10-30T08:52:44.861Z,3.38
2022-10-30T08:55:12.836Z,3.35
2022-10-30T08:57:40.907Z,3.13
2022-10-30T09:00:11.576Z,3.45
2022-10-30T09:02:40.654Z,3.08
2022-10-30T09:05:09.701Z,2.85
2022-10-30T09:07:39.224Z,3.10
2022-10-30T09:10:08.230Z,3.35
2022-10-30T09:12:36.221Z,3.28
2022-10-30T09:15:05.284Z,3.17
2022-10-30T09:17:33.429Z,3.38
2022-10-30T09:20:01.489Z,3.88
2022-10-30T09:22:29.697Z,4.20
2022-10-30T09:24:59.155Z,3.97
2022-10-30T09:27:27.624Z,4.10
2022-10-30T09:29:55.673Z,3.78
2022-10-30T09:32:23.776Z,3.90
2022-10-30T09:34:51.762Z,3.65
2022-10-30T09:37:20.188Z,3.55
2022-10-30T09:39:48.284Z,3.85
2022-10-30T09:42:43.790Z,3.58
2022-10-30T09:45:35.208Z,3.70
2022-10-30T09:48:30.455Z,3.58
2022-10-30T09:51:10.431Z,3.58
2022-10-30T09:53:47.088Z,3.70
2022-10-30T09:56:20.406Z,3.28
2022-10-30T09:59:02.137Z,3.22
2022-10-30T10:01:39.337Z,3.20
2022-10-30T10:04:23.820Z,3.72
2022-10-30T10:06:58.930Z,3.00
2022-10-30T10:09:29.589Z,3.83
2022-10-30T10:12:01.514Z,3.47
2022-10-30T10:14:36.055Z,3.28
2022-10-30T10:17:06.689Z,3.60
2022-10-30T10:19:39.899Z,3.58
2022-10-30T10:22:18.506Z,3.40
2022-10-30T10:24:47.617Z,4.15
2022-10-30T10:27:33.763Z,3.80
2022-10-30T10:30:07.837Z,3.60
2022-10-30T10:32:50.702Z,3.72
2022-10-30T10:35:51.262Z,3.95
2022-10-30T10:38:31.733Z,3.60
2022-10-30T10:41:09.428Z,3.83
2022-10-30T10:43:46.900Z,3.53
2022-10-30T10:46:33.613Z,4.68
2022-10-30T10:49:16.002Z,4.57
2022-10-30T10:51:48.756Z,4.00
2022-10-30T10:54:22.437Z,4.03
2022-10-30T10:56:52.380Z,4.10
2022-10-30T10:59:24.059Z,3.13
2022-10-30T11:02:01.520Z,3.67
2022-10-30T11:04:36.851Z,3.58
2022-10-30T11:07:19.464Z,3.75
2022-10-30T11:09:49.394Z,3.88
2022-10-30T11:12:17.873Z,4.30
2022-10-30T11:14:45.966Z,3.75
2022-10-30T11:17:33.340Z,4.05
2022-10-30T11:20:12.854Z,3.90
2022-10-30T11:22:50.515Z,3.28
2022-10-30T11:25:26.905Z,3.00
2022-10-30T11:27:58.350Z,3.70
2022-10-30T11:30:29.041Z,3.35
2022-10-30T11:32:59.917Z,3.67
2022-10-30T11:35:28.236Z,3.22
2022-10-30T11:38:14.310Z,3.78
2022-10-30T11:40:49.652Z,3.50
2022-10-30T11:43:23.516Z,3.47
2022-10-30T11:45:52.240Z,3.42
2022-10-30T11:48:27.594Z,3.65
2022-10-30T11:51:00.126Z,3.33
2022-10-30T11:53:34.090Z,3.38
2022-10-30T11:56:05.047Z,3.70
2022-10-30T11:58:37.242Z,3.38
2022-10-30T12:01:09.083Z,3.83
2022-10-30T12:03:40.532Z,3.30
2022-10-30T12:06:10.245Z,2.90
2022-10-30T12:08:38.590Z,3.40
2022-10-30T12:11:07.653Z,3.45
2022-10-30T12:13:39.761Z,3.22
2022-10-30T12:16:12.598Z,3.28
2022-10-30T12:18:42.878Z,3.33
2022-10-30T12:21:12.070Z,3.53
2022-10-30T12:23:41.021Z,3.47
2022-10-30T12:26:13.919Z,3.20
2022-10-30T12:28:48.354Z,3.60
2022-10-30T12:31:20.733Z,3.15
2022-10-30T12:36:45.949Z,3.10
2022-10-30T12:39:19.139Z,2.80
2022-10-30T12:41:54.428Z,2.72
2022-10-30T12:44:26.590Z,2.55
2022-10-30T12:47:01.255Z,2.55
2022-10-30T12:49:36.916Z,1.88
2022-10-30T12:52:09.905Z,2.65
2022-10-30T12:54:44.065Z,2.85
2022-10-30T12:57:16.293Z,2.65
2022-10-30T12:59:52.794Z,2.92
2022-10-30T13:02:30.810Z,2.25
2022-10-30T13:05:05.694Z,2.35
2022-10-30T13:07:39.811Z,2.33
2022-10-30T13:10:23.034Z,2.33
2022-10-30T13:12:56.439Z,1.95
2022-10-30T13:15:29.039Z,2.65
2022-10-30T13:17:59.206Z,2.35
2022-10-30T13:20:31.821Z,2.05
2022-10-30T13:23:06.558Z,2.40
2022-10-30T13:25:42.856Z,2.10
2022-10-30T13:28:21.527Z,1.90
2022-10-30T13:31:10.636Z,2.08
2022-10-30T13:33:43.920Z,1.92
2022-10-30T13:36:18.725Z,2.20
2022-10-30T13:38:53.525Z,2.53
2022-10-30T13:41:32.100Z,2.13
2022-10-30T13:44:08.691Z,2.47
2022-10-30T13:46:54.063Z,2.67
2022-10-30T13:49:39.624Z,2.75
2022-10-30T13:52:15.460Z,2.55
2022-10-30T13:54:47.724Z,2.38
2022-10-30T13:57:20.363Z,2.25
2022-10-30T14:00:00.383Z,2.70
2022-10-30T14:02:41.191Z,2.40
2022-10-30T14:05:24.381Z,2.40
2022-10-30T14:08:06.313Z,2.70
2022-10-30T14:10:45.624Z,2.38
2022-10-30T14:13:18.615Z,7.40
2022-10-30T14:15:48.081Z,2.78
2022-10-30T14:18:47.243Z,2.50
2022-10-30T14:21:40.957Z,2.53
2022-10-30T14:24:16.335Z,2.17
2022-10-30T14:26:53.395Z,2.33
2022-10-30T14:29:47.829Z,2.33
2022-10-30T14:32:49.429Z,2.10
2022-10-30T14:35:37.431Z,1.73
2022-10-30T14:38:27.572Z,2.03
2022-10-30T14:41:36.684Z,1.98
2022-10-30T14:44:36.844Z,2.15
2022-10-30T14:47:31.309Z,1.88
2022-10-30T14:50:03.862Z,2.65
2022-10-30T14:52:43.858Z,3.00
2022-10-30T14:55:28.156Z,3.55
2022-10-30T14:58:18.302Z,3.60
2022-10-30T15:00:46.544Z,4.22
2022-10-30T15:03:36.807Z,9.02
2022-10-30T15:06:15.015Z,9.57
2022-10-30T15:09:00.600Z,7.15
2022-10-30T15:11:57.878Z,8.30
2022-10-30T15:17:27.395Z,8.43
2022-10-30T15:19:55.737Z,7.63
2022-10-30T15:22:27.411Z,6.80
2022-10-30T15:24:55.723Z,6.57
2022-10-30T15:27:28.516Z,6.95
2022-10-30T15:30:05.183Z,9.85
2022-10-30T15:32:35.006Z,13.80
2022-10-30T15:35:06.149Z,9.20
2022-10-30T15:37:34.164Z,7.30
2022-10-30T15:40:11.893Z,7.72
2022-10-30T15:42:40.656Z,7.55
2022-10-30T15:45:17.152Z,6.60
2022-10-30T15:47:48.193Z,6.00
2022-10-30T15:50:19.971Z,5.45
2022-10-30T15:52:48.135Z,4.43
2022-10-30T15:55:18.172Z,5.13
2022-10-30T15:58:13.269Z,4.75
2022-10-30T16:00:39.626Z,3.78
2022-10-30T16:03:17.163Z,3.00
2022-10-30T16:05:48.751Z,3.10
2022-10-30T16:08:20.738Z,3.28
2022-10-30T16:10:51.009Z,2.53
2022-10-30T16:13:23.009Z,3.22
2022-10-30T16:15:52.553Z,2.60
2022-10-30T16:18:24.830Z,2.55
2022-10-30T16:20:55.106Z,2.40
2022-10-30T16:23:24.361Z,2.85
2022-10-30T16:25:56.211Z,2.72
2022-10-30T16:28:30.753Z,2.67
2022-10-30T16:31:02.428Z,2.30
2022-10-30T16:33:33.335Z,2.15
2022-10-30T16:36:03.206Z,2.08
2022-10-30T16:38:35.187Z,1.95
2022-10-30T16:41:05.553Z,2.00
2022-10-30T16:43:37.675Z,1.92
2022-10-30T16:46:34.522Z,1.80
2022-10-30T16:49:06.769Z,2.30
2022-10-30T16:51:34.844Z,2.22
2022-10-30T16:54:03.058Z,2.20
2022-10-30T16:56:33.034Z,2.17
2022-10-30T16:59:09.177Z,2.17
2022-10-30T17:01:40.304Z,1.92
2022-10-30T17:04:11.884Z,2.10
2022-10-30T17:06:45.316Z,1.88
2022-10-30T17:09:25.677Z,1.73
2022-10-30T17:12:10.479Z,1.50
2022-10-30T17:15:04.307Z,1.52
2022-10-30T17:17:36.324Z,1.80
2022-10-30T17:20:07.712Z,2.13
2022-10-30T17:22:35.921Z,1.48
2022-10-30T17:25:17.219Z,1.80
2022-10-30T17:27:48.233Z,2.00
2022-10-30T17:30:40.672Z,2.10
2022-10-30T17:33:36.200Z,1.73
2022-10-30T17:36:04.977Z,1.83
2022-10-30T17:38:32.980Z,1.73
2022-10-30T17:41:01.302Z,2.08
2022-10-30T17:43:34.458Z,2.17
2022-10-30T17:46:04.673Z,1.70
2022-10-30T17:48:35.226Z,1.85
2022-10-30T17:51:03.343Z,2.00
2022-10-30T17:53:34.217Z,2.00
2022-10-30T17:56:06.131Z,1.90
2022-10-30T17:58:34.423Z,1.80
2022-10-30T18:01:02.563Z,1.83
2022-10-30T18:03:31.920Z,2.00
2022-10-30T18:06:03.112Z,2.00
2022-10-30T18:08:33.881Z,2.30
2022-10-30T18:11:02.178Z,1.80
2022-10-30T18:13:33.453Z,2.00
2022-10-30T18:16:01.516Z,1.90
2022-10-30T18:18:29.527Z,2.22
2022-10-30T18:20:57.535Z,1.95
2022-10-30T18:26:16.867Z,2.22
2022-10-30T18:28:48.239Z,2.55
2022-10-30T18:31:20.622Z,2.10
2022-10-30T18:33:49.039Z,2.33
2022-10-30T18:36:19.394Z,2.20
2022-10-30T18:38:49.063Z,1.85
2022-10-30T18:41:22.155Z,1.70
2022-10-30T18:43:50.585Z,1.65
2022-10-30T18:46:18.722Z,1.55
2022-10-30T18:48:46.720Z,1.50
2022-10-30T18:51:18.089Z,2.03
2022-10-30T18:53:51.770Z,1.98
2022-10-30T18:56:22.998Z,2.30
2022-10-30T18:58:54.990Z,2.38
2022-10-30T19:01:27.277Z,2.25
2022-10-30T19:03:55.462Z,2.00
2022-10-30T19:06:25.227Z,2.13
2022-10-30T19:08:53.365Z,2.05
2022-10-30T19:11:25.136Z,1.85
2022-10-30T19:13:55.595Z,2.17
2022-10-30T19:16:27.112Z,2.17
2022-10-30T19:18:55.226Z,2.05
2022-10-30T19:21:25.523Z,2.30
2022-10-30T19:23:53.791Z,2.30
2022-10-30T19:26:23.161Z,1.85
2022-10-30T19:28:51.238Z,1.65
2022-10-30T19:31:20.376Z,1.88
2022-10-30T19:33:54.490Z,2.08
2022-10-30T19:36:30.168Z,2.35
2022-10-30T19:38:58.350Z,2.72
2022-10-30T19:43:56.789Z,2.10
2022-10-30T19:46:24.861Z,2.40
2022-10-30T19:48:57.696Z,2.05
2022-10-30T19:51:26.397Z,1.65
2022-10-30T19:53:54.398Z,1.75
2022-10-30T19:56:25.505Z,1.90
2022-10-30T19:58:54.901Z,1.80
2022-10-30T20:01:23.057Z,2.05
2022-10-30T20:03:54.130Z,1.90
2022-10-30T20:06:22.897Z,1.95
2022-10-30T20:08:50.979Z,2.25
2022-10-30T20:11:19.143Z,1.92
2022-10-30T20:13:50.600Z,2.00
2022-10-30T20:16:23.203Z,2.38
2022-10-30T20:18:51.384Z,2.42
2022-10-30T20:21:20.914Z,2.92
2022-10-30T20:23:49.024Z,3.10
2022-10-30T20:26:25.223Z,2.88
2022-10-30T20:28:53.870Z,2.65
2022-10-30T20:31:26.036Z,2.40
2022-10-30T20:33:54.014Z,2.50
2022-10-30T20:36:22.083Z,2.40
2022-10-30T20:38:50.057Z,2.00
2022-10-30T20:41:22.287Z,1.90
2022-10-30T20:43:51.053Z,1.80
2022-10-30T20:46:20.272Z,1.90
2022-10-30T20:48:49.761Z,1.63
2022-10-30T20:51:18.039Z,1.65
2022-10-30T20:53:46.315Z,2.08
2022-10-30T20:56:14.528Z,2.08
2022-10-30T20:58:43.019Z,2.13
2022-10-30T21:01:11.727Z,2.47
2022-10-30T21:03:39.846Z,3.47
2022-10-30T21:06:12.622Z,28.33
2022-10-30T21:08:40.653Z,20.48
2022-10-30T21:11:09.036Z,8.45
2022-10-30T21:13:37.905Z,4.88
2022-10-30T21:16:08.409Z,4.50
2022-10-30T21:18:36.716Z,3.40
2022-10-30T21:21:06.469Z,2.88
2022-10-30T21:23:38.135Z,2.70
2022-10-30T21:26:09.118Z,2.30
2022-10-30T21:28:37.108Z,2.47
2022-10-30T21:31:06.933Z,2.78
2022-10-30T21:33:38.751Z,2.70
2022-10-30T21:36:12.470Z,2.38
2022-10-30T21:38:44.341Z,2.90
2022-10-30T21:41:14.258Z,2.40
2022-10-30T21:43:42.269Z,4.75
2022-10-30T21:46:11.475Z,4.25
2022-10-30T21:48:39.960Z,3.83
2022-10-30T21:51:10.010Z,4.00
2022-10-30T21:53:38.372Z,4.15
2022-10-30T21:56:10.858Z,4.15
2022-10-30T21:58:38.925Z,3.40
2022-10-30T22:01:07.584Z,3.03
2022-10-30T22:03:35.694Z,2.95
2022-10-30T22:06:08.059Z,2.92
2022-10-30T22:08:36.220Z,2.60
2022-10-30T22:11:05.474Z,3.05
2022-10-30T22:13:35.137Z,2.35
2022-10-30T22:16:06.271Z,2.70
2022-10-30T22:18:34.560Z,2.65
2022-10-30T22:21:03.993Z,2.92
2022-10-30T22:23:32.277Z,3.13
2022-10-30T22:26:02.063Z,3.00
2022-10-30T22:28:31.423Z,3.00
2022-10-30T22:31:04.668Z,3.67
2022-10-30T22:33:33.643Z,2.97
2022-10-30T22:36:06.102Z,3.65
2022-10-30T22:38:34.547Z,3.45
2022-10-30T22:41:13.851Z,3.65
2022-10-30T22:43:42.804Z,3.45
2022-10-30T22:46:12.773Z,3.20
2022-10-30T22:48:40.940Z,3.60
2022-10-30T22:51:15.069Z,4.20
2022-10-30T22:53:45.068Z,3.80
2022-10-30T22:56:15.960Z,3.58
2022-10-30T22:58:44.957Z,3.60
2022-10-30T23:01:16.040Z,3.90
2022-10-30T23:03:44.727Z,3.00
2022-10-30T23:06:13.548Z,3.67
2022-10-30T23:08:41.599Z,3.40
2022-10-30T23:11:09.854Z,3.05
2022-10-30T23:13:40.419Z,2.95
2022-10-30T23:16:11.821Z,3.05
2022-10-30T23:18:46.895Z,3.00
2022-10-30T23:21:17.198Z,3.22
2022-10-30T23:23:47.241Z,3.25
2022-10-30T23:26:18.463Z,3.10
2022-10-30T23:28:47.689Z,2.75
2022-10-30T23:31:22.722Z,3.22
2022-10-30T23:33:53.802Z,3.60
2022-10-30T23:36:22.186Z,3.00
2022-10-30T23:38:53.042Z,3.03
2022-10-30T23:41:21.115Z,3.03
2022-10-30T23:43:49.462Z,3.00
2022-10-30T23:46:17.541Z,3.42
2022-10-30T23:48:45.539Z,3.70
2022-10-30T23:51:14.987Z,3.00
2022-10-30T23:53:44.360Z,3.67
2022-10-30T23:56:12.867Z,3.42
2022-10-30T23:58:43.436Z,3.70
